FAEL

Ben Schoeman Airport

East London, South Africa
TAF FAEL 220900Z 2210/2219 19015KT CAVOK TX25/2211Z TN22/2219Z BECMG 2215/2217 BKN018 TEMPO 2216/2219 BKN014
Issued Valid From Valid To
Jan-22 @ 09:00 UTC
(8 hours ago)
Jan-22 @ 10:00 UTC
(7 hours ago)
Jan-22 @ 19:00 UTC
(in 2 hours)
Expired Click to View Jan-22 @ 10:00 to Jan-22 @ 15:00
TAF FAEL 220900Z 2210/2219 19015KT CAVOK TX25/2211Z TN22/2219Z
Wind Visibility Clouds
190° at 15 knots 10,000+ meters
  • No significant clouds
Becoming Jan-22 @ 15:00 to Jan-22 @ 19:00
BECMG 2215/2217 BKN018
Wind Visibility Clouds
190° at 15 knots 10,000+ meters
  • Broken at 1,800' AGL
Temporary Jan-22 @ 16:00 to Jan-22 @ 19:00
TEMPO 2216/2219 BKN014
Clouds
  • Broken at 1,400' AGL
TAF FAEL 220900Z 2210/2219 19015KT CAVOK TX25/2211Z TN22/2219Z BECMG 2215/2217 BKN018 TEMPO 2216/2219 BKN014
Issued Jan-22 @ 09:00 UTC
(8 hours ago)
Valid From Jan-22 @ 10:00 UTC
(7 hours ago)
Valid To Jan-22 @ 19:00 UTC
(in 2 hours)
Jan-22 @ 10:00 - Jan-22 @ 15:00
Wind Visibility
190° at 15 knots 10,000+ meters
Clouds
  • No significant clouds
Becoming Jan-22 @ 15:00 - Jan-22 @ 19:00
Wind Visibility
190° at 15 knots 10,000+ meters
Clouds
  • Broken at 1,800' AGL
Temporary Jan-22 @ 16:00 - Jan-22 @ 19:00
Clouds
  • Broken at 1,400' AGL